Time;durP1;ratioP1;P1;durP2;ratioP2;P2;SDS_P1;SDS_P2;PMS_P1;PMS_P2;Temp;Humidity;BMP_temperature;BMP_pressure;BME280_temperature;BME280_humidity;BME280_pressure;Samples;Min_cycle;Max_cycle;Signal;HPM_P1;HPM_P2
2023/06/22 00:00:57;;;;;;;16.48;12.30;;;;;;;20.34;75.40;100567.76;1682828;83;21175;-68
2023/06/22 00:03:28;;;;;;;20.43;12.33;;;;;;;20.32;75.59;100563.55;1676127;84;21167;-67
2023/06/22 00:05:59;;;;;;;16.77;11.65;;;;;;;20.33;75.73;100574.97;1657846;84;21550;-68
2023/06/22 00:08:29;;;;;;;17.73;11.78;;;;;;;20.32;75.72;100571.34;1707992;84;21135;-67
2023/06/22 00:10:59;;;;;;;18.25;11.73;;;;;;;20.34;75.72;100578.05;1644084;86;21131;-68
2023/06/22 00:13:29;;;;;;;18.55;11.93;;;;;;;20.35;75.66;100576.40;1644494;86;21166;-69
2023/06/22 00:15:59;;;;;;;18.07;11.93;;;;;;;20.37;75.59;100574.75;1644478;87;21186;-70
2023/06/22 00:18:30;;;;;;;17.07;12.25;;;;;;;20.37;75.56;100574.20;1644223;87;21199;-69
2023/06/22 00:21:01;;;;;;;19.02;12.25;;;;;;;20.36;75.60;100569.73;1644197;87;21682;-69
2023/06/22 00:23:34;;;;;;;20.00;12.73;;;;;;;20.35;75.58;100576.40;1644188;87;21646;-69
2023/06/22 00:26:04;;;;;;;17.23;12.07;;;;;;;20.33;75.43;100571.64;1644275;87;21257;-69
2023/06/22 00:28:36;;;;;;;18.27;12.18;;;;;;;20.31;75.58;100575.78;1644367;87;21170;-67
2023/06/22 00:31:09;;;;;;;17.40;11.97;;;;;;;20.28;75.64;100590.20;1644313;86;21119;-68
2023/06/22 00:33:39;;;;;;;17.42;12.30;;;;;;;20.22;75.88;100583.73;1644340;87;21174;-68
2023/06/22 00:36:13;;;;;;;18.48;12.20;;;;;;;20.21;76.09;100581.50;1624031;87;21174;-69
2023/06/22 00:38:42;;;;;;;21.05;11.88;;;;;;;20.14;76.35;100585.53;1622475;87;21217;-67
2023/06/22 00:41:12;;;;;;;19.80;12.82;;;;;;;20.10;76.71;100587.98;1644450;87;21167;-68
2023/06/22 00:43:43;;;;;;;19.85;12.37;;;;;;;20.07;76.86;100587.11;1622416;87;21146;-67
2023/06/22 00:46:13;;;;;;;19.75;12.00;;;;;;;20.02;77.08;100593.14;1644333;87;21150;-69
2023/06/22 00:48:46;;;;;;;16.57;11.83;;;;;;;19.97;77.37;100597.23;1644193;87;21638;-68
2023/06/22 00:51:15;;;;;;;18.90;12.37;;;;;;;19.92;77.63;100598.84;1567867;91;21649;-68
2023/06/22 00:53:47;;;;;;;17.42;12.50;;;;;;;19.90;77.79;100597.42;1548684;91;21193;-69
2023/06/22 00:56:19;;;;;;;18.20;12.40;;;;;;;19.82;77.94;100604.25;1528882;92;21255;-69
2023/06/22 00:58:51;;;;;;;16.48;12.37;;;;;;;19.77;78.36;100597.22;1567710;90;21186;-68
2023/06/22 01:01:25;;;;;;;18.02;12.28;;;;;;;19.76;78.61;100605.27;1609442;86;21189;-69
2023/06/22 01:03:57;;;;;;;17.35;11.93;;;;;;;19.70;78.66;100597.94;1671637;86;21204;-68
2023/06/22 01:06:37;;;;;;;18.07;12.03;;;;;;;19.70;78.94;100602.11;1671437;86;21168;-69
2023/06/22 01:09:17;;;;;;;16.82;11.80;;;;;;;19.74;79.20;100610.78;1700039;82;21438;-69
2023/06/22 01:11:52;;;;;;;17.23;12.43;;;;;;;19.78;79.25;100607.24;1752225;82;21202;-71
2023/06/22 01:14:31;;;;;;;16.23;11.57;;;;;;;19.82;79.16;100604.25;1752124;82;21111;-67
2023/06/22 01:17:02;;;;;;;18.87;12.20;;;;;;;19.86;79.16;100604.59;1730991;82;21570;-68
2023/06/22 01:19:46;;;;;;;20.27;11.53;;;;;;;19.87;79.00;100614.06;1732923;82;21151;-70
2023/06/22 01:22:18;;;;;;;19.40;12.25;;;;;;;19.89;78.68;100605.47;1751974;82;21147;-67
2023/06/22 01:25:14;;;;;;;21.10;12.23;;;;;;;19.90;78.46;100611.32;1751867;82;21107;-69
2023/06/22 01:28:05;;;;;;;18.07;12.15;;;;;;;19.89;78.44;100606.86;1751995;82;21184;-68
2023/06/22 01:30:37;;;;;;;16.10;12.05;;;;;;;19.86;78.42;100610.98;1699846;84;22627;-68
2023/06/22 01:33:08;;;;;;;16.87;11.80;;;;;;;19.84;78.43;100607.62;1699801;84;21178;-69
2023/06/22 01:35:39;;;;;;;16.30;11.68;;;;;;;19.82;78.45;100616.77;1699791;84;21155;-69
2023/06/22 01:38:09;;;;;;;16.52;12.20;;;;;;;19.80;78.51;100614.78;1676830;84;21158;-69
2023/06/22 01:40:39;;;;;;;16.82;11.88;;;;;;;19.76;78.77;100620.56;1699631;84;21242;-69
2023/06/22 01:43:10;;;;;;;17.40;11.83;;;;;;;19.73;79.04;100612.72;1677402;84;21567;-68
2023/06/22 01:45:41;;;;;;;19.52;12.13;;;;;;;19.72;79.32;100617.14;1699929;84;21632;-69
2023/06/22 01:48:12;;;;;;;20.60;12.00;;;;;;;19.69;79.51;100617.10;1699872;84;21638;-68
2023/06/22 01:50:43;;;;;;;19.65;12.05;;;;;;;19.64;79.64;100611.45;1699945;84;21124;-70
2023/06/22 01:53:13;;;;;;;19.62;12.63;;;;;;;19.59;79.85;100608.59;1699551;84;21185;-69
2023/06/22 01:55:43;;;;;;;16.15;11.83;;;;;;;19.57;80.11;100606.61;1736834;82;21131;-70
2023/06/22 01:58:13;;;;;;;17.70;12.25;;;;;;;19.60;80.14;100613.05;1733831;82;21218;-68
2023/06/22 02:00:51;;;;;;;16.62;11.35;;;;;;;19.59;80.20;100608.59;1744596;81;21104;-69
2023/06/22 02:03:34;;;;;;;17.05;12.37;;;;;;;19.57;80.13;100613.56;1733680;82;21614;-69
2023/06/22 02:06:11;;;;;;;15.65;11.25;;;;;;;19.53;80.07;100616.55;1744254;82;21088;-70
2023/06/22 02:08:50;;;;;;;18.62;11.95;;;;;;;19.50;80.13;100615.59;1744016;81;21115;-69
2023/06/22 02:11:20;;;;;;;16.05;11.53;;;;;;;19.50;80.19;100619.77;1743991;81;21688;-68
2023/06/22 02:13:52;;;;;;;14.90;10.88;;;;;;;19.50;79.89;100614.20;1672363;82;21088;-68
2023/06/22 02:16:22;;;;;;;14.55;11.00;;;;;;;19.53;79.59;100615.16;1733583;82;22114;-67
2023/06/22 02:18:52;;;;;;;18.00;10.80;;;;;;;19.51;79.38;100607.04;1744194;82;21542;-68
2023/06/22 02:21:24;;;;;;;14.25;11.05;;;;;;;19.49;79.20;100604.19;1744281;82;21147;-70
2023/06/22 02:23:53;;;;;;;16.25;10.93;;;;;;;19.44;79.14;100617.45;1744127;81;21199;-70
2023/06/22 02:26:24;;;;;;;15.38;11.08;;;;;;;19.40;78.92;100609.86;1673588;85;21184;-69
2023/06/22 02:28:56;;;;;;;20.05;11.40;;;;;;;19.36;78.95;100611.45;1673893;85;21175;-69
2023/06/22 02:31:30;;;;;;;16.27;11.10;;;;;;;19.39;78.98;100610.95;1673770;85;21126;-71
2023/06/22 02:34:00;;;;;;;15.32;11.33;;;;;;;19.44;78.84;100616.05;1673602;85;21633;-68
2023/06/22 02:36:33;;;;;;;18.60;11.55;;;;;;;19.43;78.70;100614.92;1673434;85;21361;-70
2023/06/22 02:39:03;;;;;;;17.00;11.10;;;;;;;19.45;78.75;100611.34;1673480;85;21170;-70
2023/06/22 02:41:34;;;;;;;20.65;12.47;;;;;;;19.43;78.91;100606.03;1673746;85;21139;-69
2023/06/22 02:44:05;;;;;;;18.60;12.20;;;;;;;19.42;79.10;100609.91;1673627;85;21663;-68
2023/06/22 02:46:36;;;;;;;15.18;11.33;;;;;;;19.39;79.21;100613.73;1673590;85;21262;-69
2023/06/22 02:49:08;;;;;;;17.42;11.43;;;;;;;19.38;79.37;100607.33;1673553;85;21293;-69
2023/06/22 02:51:47;;;;;;;17.57;11.53;;;;;;;19.42;79.48;100604.89;1727047;82;21614;-67
2023/06/22 02:54:20;;;;;;;17.25;10.53;;;;;;;19.44;79.13;100606.33;1743967;82;21190;-68
2023/06/22 02:56:53;;;;;;;15.53;11.40;;;;;;;19.46;78.89;100604.69;1748713;81;21115;-68
2023/06/22 02:59:25;;;;;;;17.10;11.18;;;;;;;19.47;78.77;100609.16;1757288;81;21115;-69
2023/06/22 03:01:57;;;;;;;16.52;10.50;;;;;;;19.46;78.72;100613.87;1756714;81;21099;-69
2023/06/22 03:04:29;;;;;;;15.70;11.25;;;;;;;19.47;78.84;100610.00;1757206;82;21134;-68
2023/06/22 03:07:00;;;;;;;18.50;11.33;;;;;;;19.47;78.91;100611.93;1756886;82;21107;-69
2023/06/22 03:09:32;;;;;;;21.50;12.00;;;;;;;19.47;79.19;100610.00;1757275;82;21576;-68
2023/06/22 03:12:04;;;;;;;17.30;11.70;;;;;;;19.45;79.40;100617.73;1678587;85;21267;-68
2023/06/22 03:14:36;;;;;;;18.90;11.55;;;;;;;19.51;79.57;100622.33;1678754;84;21634;-68
2023/06/22 03:17:06;;;;;;;20.82;11.90;;;;;;;19.59;79.37;100618.32;1679039;85;21158;-69
2023/06/22 03:19:36;;;;;;;18.73;12.37;;;;;;;19.64;79.08;100618.41;1678999;85;21187;-71
2023/06/22 03:22:07;;;;;;;19.52;12.30;;;;;;;19.67;78.92;100621.23;1678734;85;21142;-69
2023/06/22 03:24:38;;;;;;;20.02;11.80;;;;;;;19.69;79.11;100625.44;1678642;85;21163;-69
2023/06/22 03:27:07;;;;;;;15.98;11.22;;;;;;;19.75;79.21;100627.21;1678819;85;21206;-70
2023/06/22 03:29:37;;;;;;;17.98;11.97;;;;;;;19.78;79.12;100624.47;1678732;85;21163;-69
2023/06/22 03:32:08;;;;;;;16.37;11.18;;;;;;;19.80;79.20;100627.84;1678700;85;21150;-69
2023/06/22 03:34:38;;;;;;;21.10;12.30;;;;;;;19.86;79.17;100625.44;1679082;85;21182;-70
2023/06/22 03:37:07;;;;;;;17.35;12.45;;;;;;;19.91;78.99;100624.97;1714824;82;21103;-65
2023/06/22 03:39:38;;;;;;;15.70;11.88;;;;;;;19.96;78.87;100622.82;1757590;82;21190;-69
2023/06/22 03:42:10;;;;;;;19.75;11.70;;;;;;;20.05;78.74;100617.12;1740376;82;21098;-69
2023/06/22 03:44:41;;;;;;;24.82;12.13;;;;;;;20.09;78.65;100615.51;1740455;82;21154;-69
2023/06/22 03:47:11;;;;;;;18.35;11.73;;;;;;;20.11;78.58;100618.04;1757251;82;21150;-68
2023/06/22 03:49:40;;;;;;;17.45;12.07;;;;;;;20.12;78.62;100623.34;1757380;82;21245;-68
2023/06/22 03:52:10;;;;;;;19.67;12.47;;;;;;;20.14;78.83;100621.70;1757393;82;21511;-69
2023/06/22 03:54:41;;;;;;;20.88;12.15;;;;;;;20.18;78.95;100626.53;1757332;82;21162;-68
2023/06/22 03:57:11;;;;;;;24.82;13.43;;;;;;;20.22;78.83;100626.31;1753735;81;21147;-68
2023/06/22 03:59:40;;;;;;;23.80;14.03;;;;;;;20.30;78.61;100623.64;1743926;82;21581;-67
2023/06/22 04:02:10;;;;;;;20.97;14.05;;;;;;;20.39;78.14;100626.30;1744202;81;21162;-69
2023/06/22 04:04:40;;;;;;;20.08;13.55;;;;;;;20.50;77.50;100627.28;1733470;82;21559;-67
2023/06/22 04:07:10;;;;;;;24.35;15.63;;;;;;;20.59;76.88;100627.13;1744049;81;21127;-70
2023/06/22 04:09:40;;;;;;;24.20;15.48;;;;;;;20.70;76.56;100630.89;1733525;82;21104;-68
2023/06/22 04:12:10;;;;;;;22.10;14.90;;;;;;;20.79;76.03;100629.33;1743891;81;21183;-68
2023/06/22 04:14:40;;;;;;;19.92;14.38;;;;;;;20.89;75.51;100636.45;1743912;82;21111;-69
2023/06/22 04:17:09;;;;;;;36.93;15.78;;;;;;;21.00;74.96;100640.20;1743959;81;21111;-68
2023/06/22 04:19:38;;;;;;;24.05;15.90;;;;;;;21.10;74.59;100638.92;1744136;82;21104;-69
2023/06/22 04:22:09;;;;;;;20.85;15.20;;;;;;;21.19;73.90;100645.16;1744088;82;21133;-69
2023/06/22 04:24:39;;;;;;;22.58;15.40;;;;;;;21.29;73.22;100638.05;1733628;82;21118;-70
2023/06/22 04:27:09;;;;;;;19.92;13.85;;;;;;;21.38;72.94;100647.61;1744091;81;21112;-67
2023/06/22 04:29:48;;;;;;;30.77;17.90;;;;;;;21.46;72.74;100649.95;1744247;82;21104;-70
2023/06/22 04:32:12;;;;;;;21.55;14.03;;;;;;;21.53;72.54;100648.35;1709073;82;21159;-69
2023/06/22 04:34:43;;;;;;;22.15;13.43;;;;;;;21.59;71.69;100652.87;1744015;82;21139;-70
2023/06/22 04:37:15;;;;;;;33.25;13.68;;;;;;;21.65;71.31;100648.47;1733767;82;21116;-70
2023/06/22 04:39:44;;;;;;;23.77;14.05;;;;;;;21.70;70.67;100649.91;1743941;82;21115;-70
2023/06/22 04:42:13;;;;;;;21.10;14.98;;;;;;;21.79;70.02;100652.50;1743815;82;21139;-70
2023/06/22 04:44:43;;;;;;;23.57;13.95;;;;;;;21.90;69.41;100659.56;1743879;82;21566;-69
2023/06/22 04:47:15;;;;;;;19.27;13.22;;;;;;;21.99;69.28;100656.56;1744002;81;21107;-68
2023/06/22 04:49:44;;;;;;;22.30;13.78;;;;;;;22.07;69.12;100644.94;1743805;81;21119;-67
2023/06/22 04:52:17;;;;;;;22.40;14.00;;;;;;;22.18;68.29;100655.66;1744048;82;21051;-68
2023/06/22 04:54:47;;;;;;;19.82;13.80;;;;;;;22.31;67.28;100660.77;1744066;82;21059;-68
2023/06/22 04:57:16;;;;;;;18.37;13.05;;;;;;;22.50;66.63;100663.40;1743918;82;21020;-68
2023/06/22 04:59:49;;;;;;;16.40;12.13;;;;;;;22.71;65.77;100662.95;1749120;80;21082;-70
2023/06/22 05:02:18;;;;;;;26.90;13.45;;;;;;;22.97;64.34;100654.19;1659915;85;21526;-69
2023/06/22 05:04:51;;;;;;;24.15;14.65;;;;;;;23.28;63.11;100664.35;1659932;86;21530;-68
2023/06/22 05:07:20;;;;;;;27.45;16.42;;;;;;;23.61;62.04;100654.69;1638428;86;21114;-70
2023/06/22 05:09:49;;;;;;;20.48;13.93;;;;;;;23.97;61.37;100661.70;1659961;85;21039;-68
2023/06/22 05:12:19;;;;;;;23.12;14.28;;;;;;;24.31;60.77;100660.05;1659870;86;21189;-68
2023/06/22 05:14:48;;;;;;;32.10;14.43;;;;;;;24.66;59.82;100656.31;1659934;86;21503;-69
2023/06/22 05:17:19;;;;;;;29.80;14.73;;;;;;;25.02;58.94;100662.41;1659976;86;21090;-69
2023/06/22 05:19:49;;;;;;;27.85;13.70;;;;;;;25.36;57.81;100652.16;1659964;82;21509;-69
2023/06/22 05:22:19;;;;;;;20.32;13.30;;;;;;;25.64;56.65;100651.97;1749442;81;21089;-68
2023/06/22 05:24:48;;;;;;;23.45;13.70;;;;;;;25.92;55.90;100648.97;1749362;82;21018;-69
2023/06/22 05:27:17;;;;;;;23.40;14.15;;;;;;;26.23;55.96;100662.20;1733017;82;21015;-67
2023/06/22 05:29:48;;;;;;;25.72;14.85;;;;;;;26.52;55.89;100659.40;1749301;82;21012;-69
2023/06/22 05:32:18;;;;;;;24.32;14.43;;;;;;;26.80;54.99;100658.55;1749273;82;21488;-70
2023/06/22 05:34:47;;;;;;;23.85;14.65;;;;;;;27.07;54.08;100660.77;1749464;82;21019;-69
2023/06/22 05:37:18;;;;;;;20.02;13.88;;;;;;;27.31;53.07;100651.44;1749539;82;21000;-69
2023/06/22 05:39:48;;;;;;;22.10;13.70;;;;;;;27.56;51.88;100660.94;1749578;82;20980;-70
2023/06/22 05:42:18;;;;;;;25.52;13.75;;;;;;;27.81;49.93;100649.04;1732919;82;21026;-69
2023/06/22 05:44:49;;;;;;;17.32;11.88;;;;;;;28.01;48.38;100655.20;1749630;81;21032;-69
2023/06/22 05:47:18;;;;;;;20.43;11.43;;;;;;;28.18;47.13;100647.58;1749563;82;21467;-69
2023/06/22 05:49:48;;;;;;;16.67;11.25;;;;;;;28.38;45.22;100647.23;1732900;82;21079;-69
2023/06/22 05:52:19;;;;;;;14.93;11.05;;;;;;;28.57;43.71;100644.91;1749200;81;21067;-69
2023/06/22 05:54:49;;;;;;;15.93;11.28;;;;;;;28.73;43.20;100642.91;1749271;82;21075;-71
2023/06/22 05:57:18;;;;;;;17.25;11.03;;;;;;;28.90;42.73;100638.64;1749616;82;21059;-70
2023/06/22 05:59:49;;;;;;;16.45;11.68;;;;;;;29.10;42.34;100640.20;1755871;81;21023;-70
2023/06/22 06:02:19;;;;;;;19.50;11.05;;;;;;;29.27;41.48;100637.00;1757277;82;21470;-70
2023/06/22 06:04:52;;;;;;;15.63;9.90;;;;;;;29.40;41.53;100634.46;1740551;82;21051;-69
2023/06/22 06:07:22;;;;;;;13.35;9.08;;;;;;;29.54;40.17;100626.81;1756875;81;21062;-69
2023/06/22 06:09:52;;;;;;;15.08;10.08;;;;;;;29.72;37.88;100635.69;1740730;82;21035;-71
2023/06/22 06:12:22;;;;;;;15.00;10.50;;;;;;;29.81;38.06;100636.59;1757215;82;21032;-69
2023/06/22 06:14:55;;;;;;;15.60;10.32;;;;;;;29.92;37.92;100628.14;1757098;82;21271;-69
2023/06/22 06:17:26;;;;;;;18.42;12.30;;;;;;;30.02;38.33;100626.24;1757208;82;21047;-68
2023/06/22 06:19:56;;;;;;;21.02;14.25;;;;;;;30.00;38.46;100626.53;1757149;81;21025;-72
2023/06/22 06:22:26;;;;;;;20.62;11.33;;;;;;;29.96;38.98;100629.16;1740695;82;21531;-70
2023/06/22 06:24:55;;;;;;;11.85;9.80;;;;;;;30.10;38.30;100625.46;1739848;82;21035;-69
2023/06/22 06:27:29;;;;;;;16.85;10.98;;;;;;;30.28;37.99;100622.98;1757104;82;21003;-69
2023/06/22 06:29:57;;;;;;;15.75;9.73;;;;;;;30.52;37.81;100622.02;1757088;82;21027;-70
2023/06/22 06:32:28;;;;;;;12.07;9.65;;;;;;;30.80;37.58;100625.52;1757236;82;21055;-69
2023/06/22 06:34:57;;;;;;;13.18;10.05;;;;;;;31.02;37.23;100626.00;1757070;82;21509;-68
2023/06/22 06:37:27;;;;;;;14.78;10.60;;;;;;;31.19;36.87;100621.82;1757170;82;21419;-69
2023/06/22 06:39:58;;;;;;;13.93;10.28;;;;;;;31.37;36.62;100617.63;1740951;82;20992;-68
2023/06/22 06:42:29;;;;;;;15.00;9.53;;;;;;;31.48;36.73;100622.63;1757555;80;21458;-70
2023/06/22 06:44:59;;;;;;;14.28;9.88;;;;;;;31.63;36.91;100619.05;1740389;82;21016;-69
2023/06/22 06:47:30;;;;;;;14.60;9.25;;;;;;;31.76;36.34;100626.56;1757221;81;21138;-70
2023/06/22 06:49:59;;;;;;;12.50;9.93;;;;;;;31.79;35.96;100618.81;1757181;80;20987;-70
2023/06/22 06:52:30;;;;;;;16.60;10.30;;;;;;;31.87;36.02;100624.25;1757379;81;21082;-71
2023/06/22 06:55:00;;;;;;;13.20;10.28;;;;;;;31.97;36.47;100623.91;1757114;82;21439;-68
2023/06/22 06:57:30;;;;;;;17.62;10.72;;;;;;;32.09;36.57;100612.12;1757246;82;21031;-70
2023/06/22 07:00:00;;;;;;;19.12;10.93;;;;;;;32.23;36.13;100616.17;1673176;85;21114;-69
2023/06/22 07:02:30;;;;;;;15.48;10.60;;;;;;;32.29;35.61;100614.85;1671526;85;21494;-70
2023/06/22 07:05:00;;;;;;;14.68;9.40;;;;;;;32.31;35.35;100621.60;1649078;86;21078;-70
2023/06/22 07:07:30;;;;;;;21.85;10.72;;;;;;;32.37;35.53;100621.08;1671768;86;21162;-68
2023/06/22 07:10:00;;;;;;;15.78;9.75;;;;;;;32.46;35.39;100611.95;1671534;86;21533;-69
2023/06/22 07:12:31;;;;;;;14.87;10.05;;;;;;;32.55;34.49;100619.05;1671431;85;21099;-69
2023/06/22 07:15:08;;;;;;;15.25;9.50;;;;;;;32.55;34.56;100616.80;1671444;86;21541;-70
2023/06/22 07:17:40;;;;;;;11.75;9.00;;;;;;;32.54;34.07;100619.38;1671695;86;21055;-70
2023/06/22 07:20:12;;;;;;;11.30;8.65;;;;;;;32.51;33.30;100612.94;1650217;86;21064;-67
2023/06/22 07:22:44;;;;;;;12.50;9.05;;;;;;;32.46;33.48;100612.54;1671549;86;21055;-70
2023/06/22 07:25:14;;;;;;;12.63;8.53;;;;;;;32.55;32.70;100608.28;1719895;82;21012;-69
2023/06/22 07:28:04;;;;;;;14.33;8.83;;;;;;;32.64;32.64;100611.32;1752009;82;21012;-69
2023/06/22 07:30:34;;;;;;;15.13;8.83;;;;;;;32.81;31.80;100613.27;1752034;81;21075;-70
2023/06/22 07:33:07;;;;;;;12.55;9.53;;;;;;;33.08;31.78;100611.35;1752154;81;21079;-70
2023/06/22 07:35:35;;;;;;;12.25;9.43;;;;;;;33.36;31.73;100615.15;1751948;80;21048;-70
2023/06/22 07:38:05;;;;;;;14.95;8.95;;;;;;;33.49;31.10;100615.46;1733409;82;21008;-70
2023/06/22 07:40:35;;;;;;;13.00;8.40;;;;;;;33.61;31.21;100615.52;1751930;81;21490;-68
2023/06/22 07:43:05;;;;;;;11.78;8.50;;;;;;;33.88;31.04;100623.28;1751805;82;21008;-72
2023/06/22 07:45:34;;;;;;;11.70;7.78;;;;;;;34.03;29.48;100621.20;1752030;80;21097;-70
2023/06/22 07:48:04;;;;;;;9.70;7.25;;;;;;;34.11;28.16;100623.13;1732939;82;21035;-69
2023/06/22 07:50:34;;;;;;;9.08;6.87;;;;;;;34.14;27.92;100621.00;1752192;82;20992;-68
2023/06/22 07:53:03;;;;;;;13.48;8.63;;;;;;;34.12;26.14;100623.96;1751797;82;21509;-71
2023/06/22 07:55:33;;;;;;;8.35;7.00;;;;;;;33.78;26.81;100626.50;1751856;81;21051;-71
2023/06/22 07:58:06;;;;;;;10.08;7.40;;;;;;;33.47;27.61;100622.67;1722111;80;21083;-70
2023/06/22 08:00:40;;;;;;;16.00;8.35;;;;;;;33.05;28.38;100631.92;1769799;80;21056;-69
2023/06/22 08:03:09;;;;;;;14.75;7.90;;;;;;;32.68;29.01;100629.33;1743948;82;21454;-70
2023/06/22 08:05:41;;;;;;;11.70;8.55;;;;;;;32.66;29.60;100625.17;1754876;81;21118;-69
2023/06/22 08:08:11;;;;;;;9.90;7.60;;;;;;;32.85;29.44;100623.36;1627625;88;22783;-71
2023/06/22 08:10:42;;;;;;;10.03;7.80;;;;;;;33.07;28.99;100620.22;1687778;85;21178;-69
2023/06/22 08:13:11;;;;;;;11.00;7.87;;;;;;;33.15;28.75;100624.17;1687841;85;21098;-69
2023/06/22 08:15:42;;;;;;;16.57;8.70;;;;;;;33.01;28.70;100625.85;1598102;90;21095;-68
2023/06/22 08:18:12;;;;;;;11.30;8.35;;;;;;;32.81;29.08;100626.05;1627656;86;21114;-69
2023/06/22 08:20:42;;;;;;;12.35;8.35;;;;;;;32.93;28.92;100625.31;1654422;85;21238;-70
2023/06/22 08:23:12;;;;;;;10.00;7.60;;;;;;;33.03;28.23;100630.02;1654309;86;21535;-69
2023/06/22 08:25:42;;;;;;;9.58;7.50;;;;;;;33.03;28.72;100635.69;1598040;90;21070;-71
2023/06/22 08:28:13;;;;;;;9.30;7.45;;;;;;;33.14;28.61;100627.61;1571961;90;21155;-68
2023/06/22 08:30:43;;;;;;;13.25;8.18;;;;;;;33.18;28.61;100624.94;1605630;87;21079;-71
2023/06/22 08:33:13;;;;;;;12.28;8.58;;;;;;;33.08;28.89;100622.72;1660793;84;21087;-69
2023/06/22 08:35:45;;;;;;;10.98;8.05;;;;;;;33.03;29.43;100634.86;1701624;83;21106;-70
2023/06/22 08:38:15;;;;;;;8.48;7.53;;;;;;;32.85;28.93;100629.87;1701602;84;21131;-70
2023/06/22 08:40:45;;;;;;;10.30;7.62;;;;;;;32.46;28.85;100632.40;1701450;84;21083;-70
2023/06/22 08:43:15;;;;;;;9.73;8.08;;;;;;;31.98;29.40;100632.66;1719956;81;21091;-71
2023/06/22 08:45:44;;;;;;;11.75;8.20;;;;;;;31.68;30.17;100626.79;1774326;81;21004;-71
2023/06/22 08:48:14;;;;;;;13.80;8.80;;;;;;;31.60;30.92;100626.21;1763781;81;21056;-70
2023/06/22 08:50:44;;;;;;;12.63;8.25;;;;;;;31.67;31.61;100620.88;1774274;81;21529;-70
2023/06/22 08:53:13;;;;;;;10.15;8.25;;;;;;;31.68;32.24;100619.70;1774331;81;21024;-68
2023/06/22 08:55:44;;;;;;;14.80;8.60;;;;;;;31.64;31.65;100620.70;1701857;84;21131;-70
2023/06/22 08:58:14;;;;;;;13.53;9.50;;;;;;;31.73;31.91;100619.57;1701489;84;21075;-70
2023/06/22 09:00:44;;;;;;;10.18;8.05;;;;;;;31.80;31.58;100619.06;1699503;84;21155;-69
2023/06/22 09:03:14;;;;;;;10.25;8.63;;;;;;;31.93;31.32;100615.83;1699647;84;21176;-70
2023/06/22 09:05:46;;;;;;;10.35;8.23;;;;;;;32.06;30.66;100614.80;1685330;84;21096;-69
2023/06/22 09:08:15;;;;;;;8.65;7.75;;;;;;;32.17;30.26;100616.11;1671632;86;21121;-70
2023/06/22 09:10:48;;;;;;;10.15;7.70;;;;;;;32.36;30.16;100610.91;1601383;89;21075;-70
2023/06/22 09:13:18;;;;;;;10.80;7.90;;;;;;;32.57;30.03;100613.86;1601325;89;21087;-70
2023/06/22 09:15:48;;;;;;;12.55;8.33;;;;;;;32.76;28.92;100610.59;1601538;89;21067;-69
2023/06/22 09:18:17;;;;;;;10.95;8.03;;;;;;;32.84;28.62;100615.42;1601418;89;21502;-70
2023/06/22 09:20:46;;;;;;;9.83;7.67;;;;;;;32.82;28.39;100616.36;1619091;88;21122;-70
2023/06/22 09:23:17;;;;;;;10.48;8.13;;;;;;;32.73;28.43;100611.28;1671102;86;21135;-69
2023/06/22 09:25:47;;;;;;;15.05;9.05;;;;;;;32.62;28.83;100608.58;1633925;86;21211;-67
2023/06/22 09:28:17;;;;;;;10.68;7.25;;;;;;;32.57;29.15;100610.19;1633738;86;21175;-65
2023/06/22 09:30:47;;;;;;;10.48;7.78;;;;;;;32.57;29.28;100600.26;1671468;86;21108;-66
2023/06/22 09:33:19;;;;;;;10.80;8.35;;;;;;;32.48;28.91;100599.68;1671475;86;21104;-66
2023/06/22 09:35:49;;;;;;;9.45;8.10;;;;;;;32.26;28.90;100608.44;1726396;82;22094;-66
2023/06/22 09:38:19;;;;;;;9.90;8.35;;;;;;;32.01;29.40;100603.64;1694165;82;21056;-65
2023/06/22 09:40:49;;;;;;;11.40;9.03;;;;;;;31.77;29.79;100600.73;1751810;82;21056;-66
2023/06/22 09:43:19;;;;;;;12.40;8.40;;;;;;;31.54;29.57;100605.72;1751780;81;21459;-65
2023/06/22 09:45:49;;;;;;;10.60;8.55;;;;;;;31.35;29.67;100602.96;1732770;82;21004;-67
2023/06/22 09:48:20;;;;;;;10.03;8.53;;;;;;;31.17;30.20;100604.33;1653786;85;21107;-66
2023/06/22 09:50:49;;;;;;;13.15;9.10;;;;;;;31.04;30.50;100601.03;1653996;87;21499;-66
2023/06/22 09:53:19;;;;;;;9.50;8.50;;;;;;;30.96;30.17;100599.02;1653695;87;21524;-65
2023/06/22 09:55:49;;;;;;;9.58;8.58;;;;;;;30.85;30.33;100592.00;1653837;87;21072;-66
2023/06/22 09:58:19;;;;;;;14.65;8.58;;;;;;;30.85;30.11;100600.48;1653825;87;21052;-64
2023/06/22 10:00:50;;;;;;;9.45;8.40;;;;;;;30.85;30.05;100599.91;1637745;86;21113;-66
2023/06/22 10:03:20;;;;;;;10.30;7.95;;;;;;;30.84;29.95;100591.75;1633152;88;21492;-66
2023/06/22 10:05:50;;;;;;;14.98;9.30;;;;;;;30.75;30.12;100587.48;1683511;80;21062;-65
2023/06/22 10:08:20;;;;;;;12.25;8.30;;;;;;;30.69;30.69;100587.38;1779829;80;21656;-65
2023/06/22 10:10:52;;;;;;;10.58;8.23;;;;;;;30.72;30.39;100584.47;1779991;80;21047;-64
2023/06/22 10:13:23;;;;;;;13.98;8.83;;;;;;;30.77;30.46;100583.73;1779881;80;21034;-65
2023/06/22 10:15:53;;;;;;;16.20;12.70;;;;;;;30.86;30.28;100574.69;1779953;80;21062;-66
2023/06/22 10:18:24;;;;;;;13.10;8.83;;;;;;;31.00;29.83;100568.89;1779875;80;21520;-66
2023/06/22 10:20:54;;;;;;;14.40;8.50;;;;;;;31.13;30.46;100565.08;1779947;80;21150;-64
2023/06/22 10:23:24;;;;;;;12.85;8.20;;;;;;;31.24;30.53;100565.64;1779898;80;21007;-67
2023/06/22 10:25:54;;;;;;;10.28;8.43;;;;;;;31.27;30.72;100556.48;1749036;80;21031;-66
2023/06/22 10:28:24;;;;;;;10.03;7.97;;;;;;;31.25;30.14;100560.23;1779877;80;21465;-65
2023/06/22 10:30:54;;;;;;;9.35;8.38;;;;;;;31.20;28.71;100554.70;1629610;87;21111;-65
2023/06/22 10:33:24;;;;;;;11.28;8.45;;;;;;;31.11;28.42;100549.00;1629263;88;21158;-65
2023/06/22 10:35:53;;;;;;;10.88;7.80;;;;;;;31.05;28.96;100548.91;1629155;88;21096;-66
2023/06/22 10:38:24;;;;;;;9.73;8.08;;;;;;;31.00;29.05;100555.31;1629452;88;21075;-65
2023/06/22 10:40:53;;;;;;;9.50;8.35;;;;;;;30.89;28.79;100550.55;1629362;88;21125;-64
2023/06/22 10:43:23;;;;;;;10.28;7.87;;;;;;;30.75;28.87;100554.94;1548905;92;21635;-65
2023/06/22 10:45:53;;;;;;;15.68;8.48;;;;;;;30.69;30.30;100545.52;1548890;92;21105;-66
2023/06/22 10:48:24;;;;;;;11.40;8.80;;;;;;;30.59;30.31;100543.83;1584594;84;21109;-64
2023/06/22 10:50:54;;;;;;;13.70;10.03;;;;;;;30.53;31.08;100540.84;1680559;84;21039;-65
2023/06/22 10:53:24;;;;;;;14.07;8.58;;;;;;;30.53;31.20;100538.84;1703979;84;21576;-64
2023/06/22 10:55:54;;;;;;;11.53;8.15;;;;;;;30.57;30.93;100534.81;1704116;84;21047;-67
2023/06/22 10:58:26;;;;;;;10.18;8.15;;;;;;;30.59;31.03;100529.69;1704379;84;21090;-67
2023/06/22 11:00:56;;;;;;;9.85;8.25;;;;;;;30.60;30.55;100534.19;1726795;80;21081;-67
2023/06/22 11:03:26;;;;;;;10.63;8.20;;;;;;;30.66;28.85;100530.04;1785806;80;21058;-65
2023/06/22 11:05:57;;;;;;;9.93;8.28;;;;;;;30.70;29.12;100518.31;1782748;80;21040;-65
2023/06/22 11:08:27;;;;;;;9.15;8.08;;;;;;;30.78;29.35;100520.91;1781025;80;21059;-67
2023/06/22 11:10:57;;;;;;;11.48;9.28;;;;;;;30.83;29.44;100520.17;1781154;80;20984;-65
2023/06/22 11:13:26;;;;;;;11.22;9.30;;;;;;;30.91;29.15;100512.85;1751110;80;21137;-66
2023/06/22 11:15:55;;;;;;;11.00;8.10;;;;;;;30.93;29.87;100514.77;1751051;80;21090;-65
2023/06/22 11:18:25;;;;;;;11.63;8.65;;;;;;;30.96;29.59;100509.86;1714168;83;21035;-67
2023/06/22 11:20:56;;;;;;;9.58;8.58;;;;;;;30.96;29.98;100509.86;1781254;80;20984;-66
2023/06/22 11:23:27;;;;;;;11.15;7.67;;;;;;;30.97;29.61;100510.11;1781027;80;21126;-66
2023/06/22 11:25:57;;;;;;;10.95;8.08;;;;;;;30.95;29.20;100510.19;1780672;80;21502;-67
2023/06/22 11:28:27;;;;;;;9.88;7.90;;;;;;;30.89;29.01;100505.28;1686437;84;21131;-67
2023/06/22 11:30:57;;;;;;;12.78;8.55;;;;;;;30.90;29.03;100505.53;1749897;80;21004;-64